createdAt,value
2023-02-22T00:00:19.278Z,20.40
2023-02-22T00:02:47.107Z,20.40
2023-02-22T00:05:17.561Z,20.40
2023-02-22T00:07:45.742Z,20.40
2023-02-22T00:10:14.487Z,20.40
2023-02-22T00:12:42.249Z,20.40
2023-02-22T00:15:09.995Z,20.40
2023-02-22T00:17:37.846Z,20.40
2023-02-22T00:20:07.302Z,20.40
2023-02-22T00:22:35.114Z,20.40
2023-02-22T00:25:02.867Z,20.40
2023-02-22T00:27:30.838Z,20.30
2023-02-22T00:29:58.921Z,20.40
2023-02-22T00:32:26.796Z,20.30
2023-02-22T00:34:54.760Z,20.40
2023-02-22T00:37:22.492Z,20.40
2023-02-22T00:39:50.374Z,20.30
2023-02-22T00:42:18.159Z,20.30
2023-02-22T00:44:46.071Z,20.30
2023-02-22T00:47:13.940Z,20.30
2023-02-22T00:49:41.811Z,20.30
2023-02-22T00:52:10.245Z,20.30
2023-02-22T00:54:38.068Z,20.30
2023-02-22T00:57:05.839Z,20.30
2023-02-22T00:59:33.636Z,20.30
2023-02-22T01:02:01.563Z,20.20
2023-02-22T01:04:29.780Z,20.30
2023-02-22T01:06:58.747Z,20.20
2023-02-22T01:09:26.987Z,20.30
2023-02-22T01:11:56.447Z,20.30
2023-02-22T01:14:24.213Z,20.30
2023-02-22T01:16:52.101Z,20.30
2023-02-22T01:19:19.881Z,20.30
2023-02-22T01:21:48.318Z,20.20
2023-02-22T01:24:16.497Z,20.30
2023-02-22T01:26:45.497Z,20.30
2023-02-22T01:29:15.198Z,20.30
2023-02-22T01:31:44.170Z,20.20
2023-02-22T01:34:12.967Z,20.20
2023-02-22T01:36:41.337Z,20.20
2023-02-22T01:39:10.591Z,20.20
2023-02-22T01:41:39.055Z,20.20
2023-02-22T01:44:06.889Z,20.20
2023-02-22T01:46:34.769Z,20.20
2023-02-22T01:49:02.490Z,20.20
2023-02-22T01:51:30.260Z,20.20
2023-02-22T01:53:58.036Z,20.20
2023-02-22T01:56:25.884Z,20.20
2023-02-22T01:58:53.743Z,20.20
2023-02-22T02:01:21.538Z,20.20
2023-02-22T02:03:50.316Z,20.20
2023-02-22T02:06:18.174Z,20.20
2023-02-22T02:08:49.861Z,20.20
2023-02-22T02:11:17.870Z,20.20
2023-02-22T02:13:45.849Z,20.10
2023-02-22T02:16:14.732Z,20.10
2023-02-22T02:18:45.266Z,20.10
2023-02-22T02:21:13.115Z,20.10
2023-02-22T02:23:41.318Z,20.10
2023-02-22T02:26:09.198Z,20.10
2023-02-22T02:28:37.178Z,20.10
2023-02-22T02:31:04.975Z,20.10
2023-02-22T02:33:32.723Z,20.10
2023-02-22T02:36:00.484Z,20.10
2023-02-22T02:38:28.230Z,20.10
2023-02-22T02:40:56.213Z,20.10
2023-02-22T02:43:23.957Z,20.10
2023-02-22T02:45:51.716Z,20.10
2023-02-22T02:48:19.570Z,20.10
2023-02-22T02:50:47.311Z,20.00
2023-02-22T02:53:17.170Z,20.10
2023-02-22T02:55:45.033Z,20.00
2023-02-22T02:58:12.979Z,20.00
2023-02-22T03:00:40.787Z,20.10
2023-02-22T03:03:08.642Z,20.00
2023-02-22T03:05:36.381Z,20.00
2023-02-22T03:08:04.267Z,20.00
2023-02-22T03:10:32.078Z,20.00
2023-02-22T03:12:59.951Z,20.00
2023-02-22T03:15:27.741Z,20.00
2023-02-22T03:17:55.567Z,20.00
2023-02-22T03:20:23.358Z,20.00
2023-02-22T03:22:51.281Z,20.00
2023-02-22T03:25:19.039Z,20.00
2023-02-22T03:27:46.837Z,20.00
2023-02-22T03:30:14.704Z,20.00
2023-02-22T03:32:42.616Z,20.00
2023-02-22T03:35:10.366Z,20.00
2023-02-22T03:37:38.245Z,20.00
2023-02-22T03:40:14.063Z,20.00
2023-02-22T03:42:41.929Z,20.00
2023-02-22T03:45:10.173Z,20.00
2023-02-22T03:47:38.089Z,20.00
2023-02-22T03:50:06.990Z,20.00
2023-02-22T03:52:35.533Z,20.00
2023-02-22T03:55:03.478Z,20.00
2023-02-22T03:57:31.460Z,19.90
2023-02-22T03:59:59.211Z,19.90
2023-02-22T04:02:27.158Z,19.90
2023-02-22T04:04:54.950Z,19.90
2023-02-22T04:07:22.709Z,20.00
2023-02-22T04:09:50.464Z,19.90
2023-02-22T04:12:18.282Z,19.90
2023-02-22T04:14:46.066Z,19.90
2023-02-22T04:17:13.834Z,20.00
2023-02-22T04:19:41.665Z,19.90
2023-02-22T04:22:09.544Z,19.90
2023-02-22T04:24:37.299Z,19.90
2023-02-22T04:27:05.615Z,19.90
2023-02-22T04:29:33.389Z,19.90
2023-02-22T04:32:01.123Z,19.90
2023-02-22T04:34:28.936Z,19.90
2023-02-22T04:36:56.762Z,19.90
2023-02-22T04:39:24.558Z,19.90
2023-02-22T04:41:52.396Z,19.90
2023-02-22T04:44:20.210Z,19.90
2023-02-22T04:46:48.077Z,19.90
2023-02-22T04:49:15.860Z,19.90
2023-02-22T04:51:43.729Z,19.90
2023-02-22T04:54:12.943Z,19.90
2023-02-22T04:56:40.767Z,19.90
2023-02-22T04:59:08.588Z,19.90
2023-02-22T05:01:36.422Z,19.90
2023-02-22T05:04:04.261Z,19.90
2023-02-22T05:06:32.062Z,19.90
2023-02-22T05:08:59.950Z,19.90
2023-02-22T05:11:27.791Z,19.80
2023-02-22T05:13:55.579Z,19.80
2023-02-22T05:16:23.420Z,19.80
2023-02-22T05:18:51.248Z,19.80
2023-02-22T05:21:19.398Z,19.80
2023-02-22T05:23:47.209Z,19.80
2023-02-22T05:26:16.251Z,19.80
2023-02-22T05:28:44.006Z,19.90
2023-02-22T05:31:11.798Z,19.80
2023-02-22T05:33:40.648Z,19.80
2023-02-22T05:36:08.536Z,19.80
2023-02-22T05:38:36.285Z,19.80
2023-02-22T05:41:04.429Z,19.80
2023-02-22T05:43:32.239Z,19.80
2023-02-22T05:46:00.040Z,19.80
2023-02-22T05:48:27.786Z,19.80
2023-02-22T05:50:56.182Z,19.80
2023-02-22T05:53:24.033Z,19.80
2023-02-22T05:55:51.865Z,19.80
2023-02-22T05:58:19.615Z,19.80
2023-02-22T06:00:47.407Z,19.80
2023-02-22T06:03:15.162Z,19.80
2023-02-22T06:05:43.051Z,19.80
2023-02-22T06:08:10.829Z,19.70
2023-02-22T06:10:38.606Z,19.70
2023-02-22T06:13:06.421Z,19.70
2023-02-22T06:15:34.188Z,19.70
2023-02-22T06:18:02.004Z,19.70
2023-02-22T06:20:29.803Z,19.70
2023-02-22T06:22:57.758Z,19.70
2023-02-22T06:25:25.916Z,19.70
2023-02-22T06:27:53.730Z,19.70
2023-02-22T06:30:21.580Z,19.70
2023-02-22T06:32:49.399Z,19.70
2023-02-22T06:35:17.139Z,19.70
2023-02-22T06:37:44.944Z,19.70
2023-02-22T06:40:12.702Z,19.70
2023-02-22T06:42:40.525Z,19.70
2023-02-22T06:45:08.389Z,19.70
2023-02-22T06:47:36.241Z,19.70
2023-02-22T06:50:04.093Z,19.70
2023-02-22T06:52:31.945Z,19.70
2023-02-22T06:54:59.710Z,19.70
2023-02-22T06:57:27.492Z,19.70
2023-02-22T06:59:55.553Z,19.70
2023-02-22T07:02:23.417Z,19.70
2023-02-22T07:04:51.414Z,19.70
2023-02-22T07:07:19.150Z,19.70
2023-02-22T07:09:46.898Z,19.70
2023-02-22T07:12:14.731Z,19.70
2023-02-22T07:14:42.491Z,19.70
2023-02-22T07:17:11.597Z,19.70
2023-02-22T07:19:39.420Z,19.70
2023-02-22T07:22:07.164Z,19.70
2023-02-22T07:24:35.248Z,19.70
2023-02-22T07:27:03.138Z,19.70
2023-02-22T07:29:31.476Z,19.70
2023-02-22T07:31:59.378Z,19.70
2023-02-22T07:34:27.163Z,19.70
2023-02-22T07:36:54.987Z,19.70
2023-02-22T07:39:22.897Z,19.70
2023-02-22T07:41:50.951Z,19.70
2023-02-22T07:44:18.706Z,19.70
2023-02-22T07:46:46.486Z,19.70
2023-02-22T07:49:14.247Z,19.70
2023-02-22T07:51:42.082Z,19.70
2023-02-22T07:54:10.978Z,19.70
2023-02-22T07:56:52.100Z,19.70
2023-02-22T07:59:21.865Z,19.70
2023-02-22T08:01:49.906Z,19.70
2023-02-22T08:04:17.686Z,19.70
2023-02-22T08:06:46.342Z,19.70
2023-02-22T08:09:15.505Z,19.70
2023-02-22T08:11:43.231Z,19.70
2023-02-22T08:14:11.281Z,19.70
2023-02-22T08:16:39.069Z,19.70
2023-02-22T08:19:06.941Z,19.70
2023-02-22T08:21:34.709Z,19.70
2023-02-22T08:24:02.534Z,19.70
2023-02-22T08:26:30.326Z,19.70
2023-02-22T08:28:58.136Z,19.70
2023-02-22T08:31:26.097Z,19.70
2023-02-22T08:33:53.863Z,19.70
2023-02-22T08:36:21.737Z,19.70
2023-02-22T08:38:49.463Z,19.70
2023-02-22T08:41:17.519Z,19.70
2023-02-22T08:43:45.455Z,19.70
2023-02-22T08:46:13.232Z,19.70
2023-02-22T08:48:40.967Z,19.70
2023-02-22T08:51:09.704Z,19.70
2023-02-22T08:53:37.885Z,19.70
2023-02-22T08:56:05.629Z,19.70
2023-02-22T08:58:33.380Z,19.70
2023-02-22T09:01:01.076Z,19.70
2023-02-22T09:03:29.173Z,19.70
2023-02-22T09:05:56.982Z,19.70
2023-02-22T09:08:24.736Z,19.70
2023-02-22T09:10:52.466Z,19.70
2023-02-22T09:13:20.181Z,19.70
2023-02-22T09:15:47.933Z,19.70
2023-02-22T09:18:18.085Z,19.70
2023-02-22T09:20:45.886Z,19.70
2023-02-22T09:23:14.529Z,19.60
2023-02-22T09:25:42.341Z,19.70
2023-02-22T09:28:10.358Z,19.60
2023-02-22T09:30:38.251Z,19.60
2023-02-22T09:33:06.675Z,19.60
2023-02-22T09:35:37.706Z,19.60
2023-02-22T09:38:06.358Z,19.60
2023-02-22T09:40:34.152Z,19.60
2023-02-22T09:43:02.026Z,19.60
2023-02-22T09:45:30.375Z,19.60
2023-02-22T09:48:01.297Z,19.60
2023-02-22T09:50:35.648Z,19.60
2023-02-22T09:53:04.363Z,19.60
2023-02-22T09:55:34.175Z,19.60
2023-02-22T09:58:01.978Z,19.60
2023-02-22T10:00:32.563Z,19.60
2023-02-22T10:03:00.909Z,19.60
2023-02-22T10:05:28.827Z,19.60
2023-02-22T10:07:56.640Z,19.60
2023-02-22T10:10:24.570Z,19.60
2023-02-22T10:12:53.346Z,19.60
2023-02-22T10:15:21.415Z,19.60
2023-02-22T10:17:49.222Z,19.60
2023-02-22T10:20:17.019Z,19.60
2023-02-22T10:22:44.802Z,19.60
2023-02-22T10:25:13.228Z,19.60
2023-02-22T10:27:41.023Z,19.60
2023-02-22T10:30:23.394Z,19.60
2023-02-22T10:32:52.174Z,19.50
2023-02-22T10:35:19.994Z,19.50
2023-02-22T10:37:48.315Z,19.50
2023-02-22T10:40:17.388Z,19.60
2023-02-22T10:42:45.245Z,19.50
2023-02-22T10:45:13.043Z,19.50
2023-02-22T10:47:40.970Z,19.50
2023-02-22T10:50:08.748Z,19.60
2023-02-22T10:52:36.709Z,19.50
2023-02-22T10:55:15.362Z,19.50
2023-02-22T10:57:44.071Z,19.50
2023-02-22T11:00:14.004Z,19.50
2023-02-22T11:02:41.831Z,19.50
2023-02-22T11:05:09.704Z,19.50
2023-02-22T11:07:37.495Z,19.50
2023-02-22T11:10:05.380Z,19.50
2023-02-22T11:12:33.278Z,19.50
2023-02-22T11:15:01.114Z,19.50
2023-02-22T11:17:28.928Z,19.50
2023-02-22T11:19:56.748Z,19.50
2023-02-22T11:22:24.875Z,19.50
2023-02-22T11:27:20.888Z,19.50
2023-02-22T11:29:50.942Z,19.50
2023-02-22T11:32:21.349Z,19.50
2023-02-22T11:34:52.826Z,19.50
2023-02-22T11:37:22.994Z,19.50
2023-02-22T11:39:51.406Z,19.50
2023-02-22T11:42:19.207Z,19.50
2023-02-22T11:44:47.100Z,19.50
2023-02-22T11:47:15.190Z,19.50
2023-02-22T11:49:43.012Z,19.50
2023-02-22T11:52:10.844Z,19.50
2023-02-22T11:54:38.649Z,19.50
2023-02-22T11:57:07.233Z,19.50
2023-02-22T11:59:36.646Z,19.50
2023-02-22T12:02:04.405Z,19.50
2023-02-22T12:04:33.188Z,19.50
2023-02-22T12:07:01.095Z,19.50
2023-02-22T12:09:28.894Z,19.50
2023-02-22T12:11:57.344Z,19.50
2023-02-22T12:14:25.318Z,19.50
2023-02-22T12:16:54.607Z,19.50
2023-02-22T12:19:23.153Z,19.50
2023-02-22T12:21:52.079Z,19.50
2023-02-22T12:24:19.887Z,19.50
2023-02-22T12:26:48.471Z,19.50
2023-02-22T12:29:16.238Z,19.50
2023-02-22T12:31:45.558Z,19.40
2023-02-22T12:34:13.528Z,19.40
2023-02-22T12:36:41.931Z,19.50
2023-02-22T12:39:09.683Z,19.40
2023-02-22T12:41:38.410Z,19.40
2023-02-22T12:44:06.201Z,19.40
2023-02-22T12:46:33.991Z,19.40
2023-02-22T12:49:01.928Z,19.40
2023-02-22T12:51:29.719Z,19.40
2023-02-22T12:53:57.515Z,19.40
2023-02-22T12:56:25.330Z,19.40
2023-02-22T12:58:54.334Z,19.40
2023-02-22T13:01:22.245Z,19.40
2023-02-22T13:03:50.378Z,19.40
2023-02-22T13:06:18.209Z,19.40
2023-02-22T13:08:45.976Z,19.40
2023-02-22T13:11:15.013Z,19.40
2023-02-22T13:13:42.921Z,19.40
2023-02-22T13:16:10.784Z,19.40
2023-02-22T13:18:39.218Z,19.30
2023-02-22T13:21:07.050Z,19.40
2023-02-22T13:23:34.898Z,19.40
2023-02-22T13:26:03.782Z,19.40
2023-02-22T13:28:32.169Z,19.40
2023-02-22T13:31:00.050Z,19.30
2023-02-22T13:33:28.294Z,19.30
2023-02-22T13:35:56.103Z,19.40
2023-02-22T13:38:24.337Z,19.30
2023-02-22T13:40:52.187Z,19.30
2023-02-22T13:43:20.011Z,19.30
2023-02-22T13:45:48.415Z,19.40
2023-02-22T13:48:16.349Z,19.30
2023-02-22T13:50:44.154Z,19.40
2023-02-22T13:53:11.943Z,19.30
2023-02-22T13:55:39.942Z,19.30
2023-02-22T13:58:07.739Z,19.30
2023-02-22T14:00:35.555Z,19.30
2023-02-22T14:03:03.440Z,19.30
2023-02-22T14:05:31.514Z,19.30
2023-02-22T14:07:59.299Z,19.30
2023-02-22T14:10:27.100Z,19.30
2023-02-22T14:12:55.124Z,19.30
2023-02-22T14:15:31.255Z,19.30
2023-02-22T14:17:59.186Z,19.30
2023-02-22T14:20:32.100Z,19.30
2023-02-22T14:23:00.070Z,19.30
2023-02-22T14:25:28.414Z,19.30
2023-02-22T14:27:57.925Z,19.30
2023-02-22T14:30:26.280Z,19.30
2023-02-22T14:32:54.261Z,19.30
2023-02-22T14:35:30.092Z,19.30
2023-02-22T14:38:03.785Z,19.30
2023-02-22T14:40:31.589Z,19.30
2023-02-22T14:42:59.474Z,19.30
2023-02-22T14:45:29.258Z,19.30
2023-02-22T14:48:01.294Z,19.30
2023-02-22T14:50:30.113Z,19.30
2023-02-22T14:52:57.967Z,19.30
2023-02-22T14:55:25.687Z,19.30
2023-02-22T14:57:54.840Z,19.30
2023-02-22T15:00:30.616Z,19.30
2023-02-22T15:02:59.145Z,19.40
2023-02-22T15:05:30.073Z,20.90
2023-02-22T15:07:57.873Z,24.60
2023-02-22T15:10:25.983Z,28.30
2023-02-22T15:12:53.744Z,30.80
2023-02-22T15:15:22.149Z,32.30
2023-02-22T15:17:49.968Z,33.30
2023-02-22T15:20:17.781Z,34.00
2023-02-22T15:22:45.715Z,34.70
2023-02-22T15:25:13.526Z,35.20
2023-02-22T15:27:41.546Z,35.80
2023-02-22T15:30:09.388Z,36.30
2023-02-22T15:32:37.211Z,37.00
2023-02-22T15:35:05.065Z,37.50
2023-02-22T15:37:32.816Z,38.00
2023-02-22T15:40:00.596Z,38.40
2023-02-22T15:42:30.519Z,38.80
2023-02-22T15:44:58.291Z,39.10
2023-02-22T15:47:26.160Z,39.30
2023-02-22T15:49:53.917Z,39.40
2023-02-22T15:52:21.663Z,39.30
2023-02-22T15:54:49.426Z,38.90
2023-02-22T15:57:17.300Z,38.30
2023-02-22T15:59:45.423Z,37.60
2023-02-22T16:02:13.353Z,36.80
2023-02-22T16:04:45.905Z,36.10
2023-02-22T16:07:17.954Z,35.40
2023-02-22T16:09:45.779Z,34.50
2023-02-22T16:12:13.829Z,33.70
2023-02-22T16:14:44.976Z,33.00
2023-02-22T16:17:13.119Z,32.30
2023-02-22T16:19:44.908Z,31.50
2023-02-22T16:22:14.154Z,30.80
2023-02-22T16:24:42.409Z,30.20
2023-02-22T16:27:10.329Z,29.60
2023-02-22T16:29:38.344Z,29.10
2023-02-22T16:32:06.201Z,28.60
2023-02-22T16:34:34.759Z,28.20
2023-02-22T16:37:02.547Z,27.70
2023-02-22T16:39:30.270Z,27.20
2023-02-22T16:41:57.985Z,26.80
2023-02-22T16:44:26.993Z,26.40
2023-02-22T16:46:54.679Z,26.10
2023-02-22T16:49:23.125Z,25.80
2023-02-22T16:51:53.403Z,25.40
2023-02-22T16:54:21.156Z,25.10
2023-02-22T16:56:48.891Z,24.90
2023-02-22T16:59:16.610Z,24.60
2023-02-22T17:01:44.298Z,24.40
2023-02-22T17:04:14.471Z,24.20
2023-02-22T17:06:42.182Z,24.00
2023-02-22T17:09:09.878Z,23.90
2023-02-22T17:11:37.579Z,23.80
2023-02-22T17:14:05.304Z,24.10
2023-02-22T17:16:33.008Z,24.60
2023-02-22T17:19:00.753Z,25.30
2023-02-22T17:21:28.465Z,26.30
2023-02-22T17:23:56.182Z,27.70
2023-02-22T17:26:26.186Z,29.10
2023-02-22T17:28:53.914Z,30.20
2023-02-22T17:31:21.762Z,30.90
2023-02-22T17:33:51.471Z,31.20
2023-02-22T17:36:19.387Z,31.30
2023-02-22T17:38:47.296Z,31.20
2023-02-22T17:47:36.590Z,30.40
2023-02-22T17:50:15.465Z,30.00
2023-02-22T17:52:45.545Z,29.50
2023-02-22T17:58:31.161Z,28.70
2023-02-22T18:01:24.956Z,28.20
2023-02-22T18:03:55.262Z,27.80
2023-02-22T18:06:25.221Z,27.30
2023-02-22T18:09:00.538Z,27.00
2023-02-22T18:11:32.544Z,26.70
2023-02-22T18:16:56.268Z,26.00
2023-02-22T18:19:24.011Z,25.60
2023-02-22T18:21:52.473Z,25.40
2023-02-22T18:24:20.356Z,25.10
2023-02-22T18:26:48.356Z,24.80
2023-02-22T18:29:16.134Z,24.60
2023-02-22T18:31:45.434Z,24.40
2023-02-22T18:34:13.564Z,24.20
2023-02-22T18:36:41.471Z,24.00
2023-02-22T18:39:11.774Z,23.80
2023-02-22T18:41:39.596Z,23.60
2023-02-22T18:44:10.422Z,23.50
2023-02-22T18:46:38.257Z,23.40
2023-02-22T18:49:06.074Z,23.30
2023-02-22T18:51:33.982Z,23.20
2023-02-22T18:54:01.795Z,23.10
2023-02-22T18:56:30.858Z,22.90
2023-02-22T18:59:01.761Z,22.80
2023-02-22T19:01:29.546Z,22.70
2023-02-22T19:03:57.465Z,22.60
2023-02-22T19:06:25.293Z,22.60
2023-02-22T19:08:53.544Z,22.50
2023-02-22T19:11:21.994Z,22.70
2023-02-22T19:13:50.325Z,24.40
2023-02-22T19:16:20.054Z,27.50
2023-02-22T19:18:48.659Z,30.50
2023-02-22T19:21:16.681Z,32.70
2023-02-22T19:23:47.641Z,34.20
2023-02-22T19:26:18.539Z,35.20
2023-02-22T19:28:46.665Z,35.90
2023-02-22T19:31:14.641Z,36.40
2023-02-22T19:33:42.498Z,36.50
2023-02-22T19:36:10.379Z,36.40
2023-02-22T19:38:38.173Z,36.10
2023-02-22T19:41:10.091Z,35.60
2023-02-22T19:43:38.256Z,35.00
2023-02-22T19:46:06.139Z,34.40
2023-02-22T19:48:34.009Z,33.70
2023-02-22T19:51:01.797Z,33.10
2023-02-22T19:53:29.541Z,32.50
2023-02-22T19:55:57.488Z,31.80
2023-02-22T19:58:25.327Z,31.30
2023-02-22T20:00:53.179Z,30.70
2023-02-22T20:03:24.622Z,30.10
2023-02-22T20:05:52.476Z,29.60
2023-02-22T20:08:20.857Z,29.20
2023-02-22T20:10:48.627Z,28.70
2023-02-22T20:13:17.132Z,28.20
2023-02-22T20:15:45.135Z,27.80
2023-02-22T20:18:12.984Z,27.40
2023-02-22T20:20:42.036Z,27.00
2023-02-22T20:23:10.369Z,26.60
2023-02-22T20:25:38.158Z,26.30
2023-02-22T20:28:07.728Z,25.90
2023-02-22T20:30:35.525Z,25.60
2023-02-22T20:33:03.542Z,25.40
2023-02-22T20:35:31.904Z,25.10
2023-02-22T20:37:59.854Z,24.80
2023-02-22T20:40:27.625Z,24.60
2023-02-22T20:42:56.316Z,24.40
2023-02-22T20:45:24.106Z,24.10
2023-02-22T20:47:51.914Z,24.00
2023-02-22T20:50:19.658Z,23.80
2023-02-22T20:52:47.455Z,23.60
2023-02-22T20:55:15.321Z,23.50
2023-02-22T20:57:43.129Z,23.40
2023-02-22T21:00:11.050Z,23.20
2023-02-22T21:02:39.470Z,23.10
2023-02-22T21:05:07.270Z,23.00
2023-02-22T21:07:34.990Z,22.90
2023-02-22T21:10:06.093Z,22.80
2023-02-22T21:12:33.901Z,22.70
2023-02-22T21:15:01.677Z,22.60
2023-02-22T21:17:30.833Z,22.50
2023-02-22T21:19:58.572Z,22.40
2023-02-22T21:22:26.404Z,22.30
2023-02-22T21:24:54.392Z,22.20
2023-02-22T21:27:22.178Z,22.10
2023-02-22T21:29:49.910Z,22.00
2023-02-22T21:32:17.986Z,21.90
2023-02-22T21:34:45.796Z,21.90
2023-02-22T21:37:18.050Z,21.80
2023-02-22T21:39:47.531Z,21.80
2023-02-22T21:42:15.453Z,21.70
2023-02-22T21:44:43.262Z,21.60
2023-02-22T21:47:11.001Z,21.60
2023-02-22T21:49:38.910Z,21.50
2023-02-22T21:52:07.797Z,21.50
2023-02-22T21:54:35.551Z,21.40
2023-02-22T21:57:06.216Z,21.40
2023-02-22T21:59:33.989Z,21.30
2023-02-22T22:02:01.818Z,21.30
2023-02-22T22:04:29.615Z,21.30
2023-02-22T22:06:57.804Z,21.20
2023-02-22T22:09:29.040Z,21.20
2023-02-22T22:11:58.398Z,21.10
2023-02-22T22:14:26.225Z,21.10
2023-02-22T22:16:53.937Z,21.10
2023-02-22T22:19:22.848Z,21.00
2023-02-22T22:21:53.558Z,20.90
2023-02-22T22:24:21.395Z,21.00
2023-02-22T22:26:51.223Z,20.90
2023-02-22T22:29:18.999Z,20.90
2023-02-22T22:31:46.882Z,20.90
2023-02-22T22:34:14.672Z,20.80
2023-02-22T22:36:43.393Z,20.80
2023-02-22T22:39:14.031Z,20.80
2023-02-22T22:41:41.853Z,20.80
2023-02-22T22:44:09.913Z,20.70
2023-02-22T22:46:39.711Z,20.70
2023-02-22T22:49:07.918Z,20.70
2023-02-22T22:51:35.975Z,20.70
2023-02-22T22:54:03.705Z,20.70
2023-02-22T22:56:35.140Z,20.70
2023-02-22T22:59:07.460Z,20.70
2023-02-22T23:01:39.139Z,20.70
2023-02-22T23:04:06.863Z,20.70
2023-02-22T23:06:34.637Z,20.70
2023-02-22T23:09:09.184Z,20.70
2023-02-22T23:11:36.972Z,20.70
2023-02-22T23:14:04.750Z,20.60
2023-02-22T23:16:33.324Z,20.60
2023-02-22T23:19:01.204Z,20.60
2023-02-22T23:21:28.979Z,20.60
2023-02-22T23:23:58.208Z,20.60
2023-02-22T23:26:26.825Z,20.60
2023-02-22T23:28:54.682Z,20.60
2023-02-22T23:31:22.686Z,20.60
2023-02-22T23:33:50.660Z,20.60
2023-02-22T23:36:18.457Z,20.60
2023-02-22T23:38:46.404Z,20.60
2023-02-22T23:41:16.620Z,20.60
2023-02-22T23:43:44.634Z,20.60
2023-02-22T23:46:12.393Z,20.50
2023-02-22T23:48:40.340Z,20.60
2023-02-22T23:51:09.193Z,20.50
2023-02-22T23:53:38.151Z,20.50
2023-02-22T23:56:10.010Z,20.50
2023-02-22T23:58:37.991Z,20.50
